No particular awareness of the weather is required.    There are no Weather-warnings


Meteo18 Weather Cam more information Meteo18 Weather Cam


Thunder radar more information blitzortung!


Rain radar more information rain snow radar


Visit our other weather sites:

Template documentation
and downloads

And another site



Weather Underground History page Text

Daily Summary for October 30, 2017 Units:  English    Metric   Both
« Previous Day
Next Day »
Daily Weekly Monthly Yearly Custom
  High: Low: Average:
Temperature: 51.4 °F 38.1 °F 45.5 °F
Dew Point: 43.7 °F 36.9 °F 40.1 °F
Humidity: 96 % 66 % 82 %
Wind Speed: 17 mph 0 mph 5 mph
Wind Gust: 22 mph - -
Wind:- - East
Pressure: 30.4 in 30.3 in -
Precipitation: 0 in    
Historical Graphs
 
 
Tabular Data for October 30, 2017
Time Temperature Dew Point Pressure Wind Wind Speed Wind Gust Humidity Rainfall Rate (Hourly)
00:02 46.2 °F 42.8 °F 30.3 in NNE 8 mph 11 mph 88 % 0 in
00:12 45.7 °F 42.6 °F 30.3 in NNW 2 mph 11 mph 89 % 0 in
00:17 45.3 °F 42.3 °F 30.3 in NW 4 mph 9 mph 89 % 0 in
00:22 45.1 °F 42.1 °F 30.3 in ENE 1 mph 9 mph 89 % 0 in
00:32 44.8 °F 41.7 °F 30.3 in North 5 mph 11 mph 89 % 0 in
00:42 44.4 °F 41.7 °F 30.3 in North 3 mph 9 mph 90 % 0 in
00:47 44.4 °F 41.4 °F 30.3 in NNW 5 mph 9 mph 89 % 0 in
00:52 44.2 °F 41.5 °F 30.3 in NNE 3 mph 11 mph 90 % 0 in
01:02 44.1 °F 41.4 °F 30.3 in ENE 4 mph 12 mph 90 % 0 in
01:12 43.9 °F 41.2 °F 30.3 in NW 3 mph 12 mph 90 % 0 in
01:17 43.9 °F 41.2 °F 30.3 in Calm   8 mph 90 % 0 in
01:22 43.7 °F 41 °F 30.3 in NNE 3 mph 10 mph 90 % 0 in
01:27 43.7 °F 41 °F 30.3 in NNE 1 mph 10 mph 90 % 0 in
01:32 43.7 °F 41.2 °F 30.3 in NE 1 mph 10 mph 91 % 0 in
01:37 43.5 °F 41 °F 30.3 in NE 4 mph 8 mph 91 % 0 in
01:42 43.3 °F 40.8 °F 30.3 in NNE 4 mph 8 mph 91 % 0 in
01:52 43.2 °F 40.6 °F 30.3 in NE 5 mph 7 mph 91 % 0 in
01:57 43 °F 40.5 °F 30.3 in Calm   7 mph 91 % 0 in
02:02 43 °F 40.5 °F 30.3 in NE 4 mph 7 mph 91 % 0 in
02:12 43 °F 40.8 °F 30.3 in WNW 2 mph 9 mph 92 % 0 in
02:17 43 °F 40.8 °F 30.3 in North 7 mph 9 mph 92 % 0 in
02:22 43 °F 40.8 °F 30.3 in NE 3 mph 10 mph 92 % 0 in
02:27 42.8 °F 40.3 °F 30.3 in North 4 mph 10 mph 91 % 0 in
02:32 42.6 °F 40.5 °F 30.3 in North 3 mph 9 mph 92 % 0 in
02:42 42.4 °F 40.3 °F 30.3 in NNE 3 mph 10 mph 92 % 0 in
02:47 42.4 °F 40.3 °F 30.3 in Calm   10 mph 92 % 0 in
02:57 42.3 °F 40.1 °F 30.3 in NNE 4 mph 10 mph 92 % 0 in
03:02 42.1 °F 39.9 °F 30.3 in NE 2 mph 9 mph 92 % 0 in
03:12 41.9 °F 39.7 °F 30.3 in NE 5 mph 8 mph 92 % 0 in
03:17 41.4 °F 39.2 °F 30.3 in North 1 mph 8 mph 92 % 0 in
03:22 41.4 °F 39.2 °F 30.3 in North 1 mph 8 mph 92 % 0 in
03:27 41.4 °F 39.2 °F 30.3 in North 1 mph 8 mph 92 % 0 in
07:57 38.1 °F 36.9 °F 30.3 in Calm   -998.7 mph 95 % 0 in
08:02 38.3 °F 37 °F 30.3 in North 1 mph -998.7 mph 95 % 0 in
08:07 38.5 °F 37.4 °F 30.3 in Calm   3 mph 96 % 0 in
08:12 38.5 °F 37.4 °F 30.3 in Calm   3 mph 96 % 0 in
08:22 39 °F 37.9 °F 30.4 in North 1 mph 5 mph 96 % 0 in
08:27 39.2 °F 38.1 °F 30.3 in NNE 2 mph 5 mph 96 % 0 in
08:32 39.4 °F 38.1 °F 30.4 in NNE 5 mph 5 mph 95 % 0 in
08:37 39.7 °F 38.5 °F 30.4 in Calm   7 mph 95 % 0 in
08:42 39.9 °F 38.7 °F 30.4 in NW 1 mph 7 mph 95 % 0 in
08:52 40.6 °F 39.4 °F 30.4 in NNW 2 mph 7 mph 95 % 0 in
08:57 40.8 °F 39.6 °F 30.4 in NE 3 mph 6 mph 95 % 0 in
09:02 41.2 °F 39.9 °F 30.4 in NNW 3 mph 6 mph 95 % 0 in
09:12 42.1 °F 40.3 °F 30.4 in NNE 1 mph 9 mph 93 % 0 in
09:22 42.6 °F 40.5 °F 30.4 in NNE 4 mph 10 mph 92 % 0 in
09:32 43.2 °F 40.5 °F 30.4 in NE 5 mph 12 mph 90 % 0 in
09:37 43.3 °F 40.6 °F 30.4 in NE 8 mph 11 mph 90 % 0 in
09:42 43.5 °F 40.8 °F 30.3 in NE 6 mph 11 mph 90 % 0 in
09:52 43.9 °F 40.8 °F 30.3 in North 4 mph 11 mph 89 % 0 in
09:57 44.1 °F 41 °F 30.4 in NE 6 mph 13 mph 89 % 0 in
10:02 44.2 °F 41.2 °F 30.4 in North 8 mph 13 mph 89 % 0 in
10:07 44.2 °F 41 °F 30.4 in NE 7 mph 11 mph 88 % 0 in
10:12 44.4 °F 41.2 °F 30.4 in NNE 7 mph 11 mph 88 % 0 in
10:17 44.4 °F 41.2 °F 30.3 in NE 11 mph 13 mph 88 % 0 in
10:22 44.8 °F 41.4 °F 30.3 in NNE 5 mph 13 mph 88 % 0 in
10:27 45 °F 41.4 °F 30.3 in NE 4 mph 14 mph 87 % 0 in
10:32 45.3 °F 41.7 °F 30.3 in NE 7 mph 14 mph 87 % 0 in
10:42 45.9 °F 42.3 °F 30.3 in NNE 13 mph 13 mph 87 % 0 in
10:47 45.9 °F 41.9 °F 30.4 in NNE 3 mph 13 mph 86 % 0 in
10:52 46 °F 41.7 °F 30.4 in NNE 12 mph 13 mph 85 % 0 in
11:02 46.2 °F 41.9 °F 30.4 in NE 9 mph 16 mph 85 % 0 in
11:07 46.8 °F 42.4 °F 30.4 in NE 13 mph 16 mph 85 % 0 in
11:12 46.6 °F 42.3 °F 30.4 in North 9 mph 16 mph 85 % 0 in
11:17 46.8 °F 42.3 °F 30.4 in NE 4 mph 18 mph 84 % 0 in
11:27 47.1 °F 42.8 °F 30.4 in NNE 12 mph 17 mph 85 % 0 in
11:32 47.5 °F 42.8 °F 30.4 in NE 6 mph 17 mph 84 % 0 in
11:37 47.8 °F 43.2 °F 30.4 in ENE 5 mph 17 mph 84 % 0 in
11:42 48 °F 42.8 °F 30.4 in North 12 mph 17 mph 82 % 0 in
11:47 48.2 °F 43 °F 30.4 in NNE 6 mph 16 mph 82 % 0 in
11:52 48.6 °F 43.7 °F 30.4 in NNE 8 mph 16 mph 83 % 0 in
11:57 48.6 °F 42.6 °F 30.4 in NNE 7 mph 14 mph 80 % 0 in
12:02 48.6 °F 42.3 °F 30.4 in NNE 9 mph 14 mph 79 % 0 in
12:12 49.1 °F 42.3 °F 30.3 in NE 4 mph 16 mph 77 % 0 in
12:17 49.3 °F 42.1 °F 30.4 in NNE 7 mph 16 mph 76 % 0 in
12:22 50 °F 43.2 °F 30.3 in NE 3 mph 16 mph 77 % 0 in
12:32 50.4 °F 42.8 °F 30.3 in NE 10 mph 17 mph 75 % 0 in
12:37 50.5 °F 42.3 °F 30.4 in NE 14 mph 17 mph 73 % 0 in
12:42 50.4 °F 41.7 °F 30.4 in ENE 6 mph 16 mph 72 % 0 in
12:52 50.4 °F 41 °F 30.3 in NW 6 mph 16 mph 70 % 0 in
12:57 50.4 °F 40.6 °F 30.3 in ENE 8 mph 19 mph 69 % 0 in
13:02 50.2 °F 40.8 °F 30.3 in NNE 9 mph 19 mph 70 % 0 in
13:12 49.8 °F 40.5 °F 30.3 in NE 12 mph 22 mph 70 % 0 in
13:22 49.8 °F 40.1 °F 30.3 in ENE 10 mph 21 mph 69 % 0 in
13:32 49.8 °F 40.8 °F 30.3 in NE 9 mph 16 mph 71 % 0 in
13:37 50.4 °F 41 °F 30.3 in NE 7 mph 16 mph 70 % 0 in
13:42 50 °F 40.3 °F 30.3 in North 10 mph 16 mph 69 % 0 in
13:52 49.8 °F 41.2 °F 30.4 in NE 8 mph 17 mph 72 % 0 in
13:57 50.5 °F 42.3 °F 30.3 in NE 5 mph 17 mph 73 % 0 in
14:02 50.4 °F 40.3 °F 30.3 in NNE 17 mph 17 mph 68 % 0 in
14:12 49.6 °F 40.3 °F 30.3 in ENE 9 mph 18 mph 70 % 0 in
14:17 50 °F 39.9 °F 30.3 in ENE 11 mph 18 mph 68 % 0 in
14:22 50.5 °F 40.5 °F 30.3 in ENE 5 mph 16 mph 68 % 0 in
14:32 51.3 °F 41 °F 30.3 in NE 5 mph 16 mph 68 % 0 in
14:37 51.4 °F 41.2 °F 30.3 in NE 11 mph 16 mph 68 % 0 in
14:42 51.1 °F 40.8 °F 30.3 in NE 7 mph 16 mph 68 % 0 in
14:52 50.7 °F 40.1 °F 30.3 in NNW 8 mph 19 mph 67 % 0 in
14:57 51.1 °F 40.1 °F 30.3 in ENE 6 mph 19 mph 66 % 0 in
15:02 50.7 °F 40.1 °F 30.3 in NE 9 mph 19 mph 67 % 0 in
15:12 50.7 °F 40.5 °F 30.3 in NE 6 mph 15 mph 68 % 0 in
15:17 50.9 °F 41.2 °F 30.3 in NNE 8 mph 15 mph 69 % 0 in
15:22 50.7 °F 41.4 °F 30.3 in NE 7 mph 17 mph 70 % 0 in
15:27 50.2 °F 40.8 °F 30.4 in NNE 4 mph 17 mph 70 % 0 in
15:32 49.8 °F 41.2 °F 30.4 in North 6 mph 15 mph 72 % 0 in
15:42 50.2 °F 41.2 °F 30.4 in North 7 mph 15 mph 71 % 0 in
15:52 50.4 °F 41 °F 30.4 in NNW 5 mph 17 mph 70 % 0 in
15:57 50.4 °F 41.4 °F 30.4 in NE 3 mph 17 mph 71 % 0 in
16:02 50.4 °F 40.6 °F 30.4 in NNE 5 mph 17 mph 69 % 0 in
16:12 50.2 °F 40.5 °F 30.4 in NE 10 mph 16 mph 69 % 0 in
16:17 50.2 °F 40.8 °F 30.4 in NNE 11 mph 16 mph 70 % 0 in
16:22 50 °F 41 °F 30.4 in NE 10 mph 16 mph 71 % 0 in
16:32 50 °F 40.6 °F 30.4 in NNE 6 mph 15 mph 70 % 0 in
16:37 50.2 °F 40.8 °F 30.4 in ENE 8 mph 14 mph 70 % 0 in
16:42 50 °F 40.6 °F 30.4 in NE 8 mph 14 mph 70 % 0 in
16:47 49.8 °F 40.5 °F 30.4 in NE 10 mph 14 mph 70 % 0 in
16:52 49.6 °F 40.3 °F 30.4 in NNE 4 mph 12 mph 70 % 0 in
16:57 49.6 °F 39.9 °F 30.4 in NE 6 mph 12 mph 69 % 0 in
17:02 49.6 °F 39.9 °F 30.4 in NE 5 mph 12 mph 69 % 0 in
17:12 49.6 °F 40.3 °F 30.4 in NE 4 mph 11 mph 70 % 0 in
17:17 49.5 °F 40.1 °F 30.4 in NE 13 mph 13 mph 70 % 0 in
17:22 49.3 °F 39.9 °F 30.4 in NE 7 mph 13 mph 70 % 0 in
17:32 48.6 °F 39.9 °F 30.4 in NNE 1 mph 14 mph 72 % 0 in
17:37 48 °F 39.7 °F 30.4 in NE 3 mph 14 mph 73 % 0 in
17:42 47.8 °F 39.9 °F 30.4 in ENE 5 mph 14 mph 74 % 0 in
17:47 47.8 °F 39.6 °F 30.4 in NE 9 mph 12 mph 73 % 0 in
17:52 47.8 °F 39.6 °F 30.4 in NNW 2 mph 12 mph 73 % 0 in
17:57 48 °F 39.7 °F 30.4 in NNE 5 mph 13 mph 73 % 0 in
18:02 47.8 °F 39.9 °F 30.4 in NE 7 mph 13 mph 74 % 0 in
18:12 47.8 °F 40.3 °F 30.4 in NE 5 mph 12 mph 75 % 0 in
18:17 47.7 °F 40.1 °F 30.4 in NE 3 mph 8 mph 75 % 0 in
18:22 47.5 °F 39.9 °F 30.4 in NE 3 mph 8 mph 75 % 0 in
18:32 47.1 °F 39.9 °F 30.4 in NNE 3 mph 12 mph 76 % 0 in
18:42 46.9 °F 39.7 °F 30.4 in NE 8 mph 11 mph 76 % 0 in
18:52 46.8 °F 39.9 °F 30.4 in North 6 mph 11 mph 77 % 0 in
18:57 46.6 °F 39.7 °F 30.4 in NNE 6 mph 11 mph 77 % 0 in
19:02 46.2 °F 39.7 °F 30.4 in ENE 4 mph 11 mph 78 % 0 in
19:12 45.5 °F 39.4 °F 30.4 in NNE 2 mph 10 mph 79 % 0 in
19:17 45.3 °F 39.2 °F 30.4 in NE 6 mph 7 mph 79 % 0 in
19:22 45.5 °F 39.4 °F 30.4 in NE 7 mph 8 mph 79 % 0 in
19:32 45.3 °F 39.6 °F 30.4 in NE 5 mph 9 mph 80 % 0 in
19:37 45.3 °F 39.6 °F 30.4 in NE 4 mph 9 mph 80 % 0 in
19:42 45.3 °F 39.6 °F 30.4 in ENE 9 mph 9 mph 80 % 0 in
19:47 45.3 °F 39.2 °F 30.4 in NE 4 mph 9 mph 79 % 0 in
19:52 45.3 °F 39.2 °F 30.4 in NE 1 mph 11 mph 79 % 0 in
19:57 45.1 °F 39 °F 30.4 in NNE 5 mph 11 mph 79 % 0 in
20:12 45 °F 39.2 °F 30.4 in NNE 2 mph 10 mph 80 % 0 in
20:17 44.8 °F 39 °F 30.4 in NNE 3 mph 10 mph 80 % 0 in
20:22 44.8 °F 39 °F 30.4 in North 4 mph 10 mph 80 % 0 in
20:27 44.6 °F 38.8 °F 30.4 in North 4 mph 9 mph 80 % 0 in
20:32 44.4 °F 38.7 °F 30.4 in NE 5 mph 9 mph 80 % 0 in
20:37 44.4 °F 38.7 °F 30.4 in NE 4 mph 9 mph 80 % 0 in
20:47 44.2 °F 38.8 °F 30.4 in NE 6 mph 10 mph 81 % 0 in
20:57 44.1 °F 38.7 °F 30.4 in NNE 1 mph 8 mph 81 % 0 in
21:02 43.9 °F 38.7 °F 30.4 in ENE 7 mph 8 mph 82 % 0 in
21:07 43.9 °F 38.7 °F 30.4 in Calm   8 mph 82 % 0 in
21:12 43.5 °F 38.5 °F 30.4 in NNW 1 mph 8 mph 82 % 0 in
21:22 43.3 °F 38.5 °F 30.4 in NNE 2 mph 9 mph 83 % 0 in
21:27 43.2 °F 38.3 °F 30.4 in NNW 3 mph 9 mph 83 % 0 in
21:32 43.5 °F 38.7 °F 30.4 in NNW 2 mph 6 mph 83 % 0 in
21:37 43.5 °F 38.7 °F 30.4 in NE 4 mph 9 mph 83 % 0 in
21:42 43.7 °F 38.5 °F 30.4 in North 4 mph 9 mph 82 % 0 in
21:47 43.7 °F 38.5 °F 30.4 in NE 3 mph 11 mph 82 % 0 in
21:52 43.5 °F 38.7 °F 30.4 in NNE 2 mph 11 mph 83 % 0 in
21:57 43.5 °F 38.7 °F 30.4 in NNE 8 mph 11 mph 83 % 0 in
22:02 43.5 °F 38.7 °F 30.4 in NNE 3 mph 11 mph 83 % 0 in
22:12 43.3 °F 38.5 °F 30.4 in North 5 mph 11 mph 83 % 0 in
22:17 43.2 °F 38.7 °F 30.4 in North 5 mph 11 mph 84 % 0 in
22:22 43.2 °F 38.7 °F 30.4 in NNE 3 mph 11 mph 84 % 0 in
22:32 43 °F 38.5 °F 30.4 in ENE 3 mph 11 mph 84 % 0 in
22:37 42.6 °F 38.1 °F 30.4 in NNE 3 mph 10 mph 84 % 0 in
22:42 42.8 °F 38.3 °F 30.4 in NNE 5 mph 10 mph 84 % 0 in
22:52 42.3 °F 38.1 °F 30.4 in North 2 mph 8 mph 85 % 0 in
22:57 42.1 °F 37.9 °F 30.4 in NNW 2 mph 8 mph 85 % 0 in
23:02 41.7 °F 37.8 °F 30.4 in Calm   7 mph 86 % 0 in
23:07 41.4 °F 37.6 °F 30.4 in North 3 mph 4 mph 86 % 0 in
23:17 41.2 °F 37.6 °F 30.4 in NNW 2 mph 5 mph 87 % 0 in
23:22 40.8 °F 37.2 °F 30.4 in NNW 3 mph 5 mph 87 % 0 in
23:27 40.8 °F 37.6 °F 30.4 in NNE 3 mph 5 mph 88 % 0 in
23:32 40.6 °F 37.4 °F 30.4 in NNW 2 mph 5 mph 88 % 0 in
23:37 40.6 °F 37.4 °F 30.4 in North 6 mph 6 mph 88 % 0 in
23:42 40.6 °F 37.4 °F 30.4 in NE 2 mph 6 mph 88 % 0 in
23:47 40.6 °F 37.4 °F 30.4 in Calm   7 mph 88 % 0 in
23:52 40.5 °F 37.2 °F 30.4 in NE 1 mph 7 mph 88 % 0 in
23:57 40.3 °F 37 °F 30.4 in NNW 1 mph 7 mph 88 % 0 in
Meteo18
Compliments of Weather Underground - 4 mb

Script developed by  Jim McMurry - jmcmurry@mwt.net Adapted for the template by  Wim van der Kuil - Leuven-Template.eu

You find our weather info also at:

European Weather Network

Weather Underground

Equipment we use:

Weather-station
Davis Vue

Weather-program
Meteohub

Weather-server
Raspberry PI 2 B+

Provider
1 and 1

Davis Vue

Meteohub

Raspberry PI 2 B+

1 and 1